Time;durP1;ratioP1;P1;durP2;ratioP2;P2;SDS_P1;SDS_P2;PMS_P1;PMS_P2;Temp;Humidity;BMP_temperature;BMP_pressure;BME280_temperature;BME280_humidity;BME280_pressure;Samples;Min_cycle;Max_cycle;Signal;HPM_P1;HPM_P2
2021/05/08 00:02:42;;;;;;;10.10;3.70;;;;;;;15.07;62.10;100030.28;1777170;80;21350;-58
2021/05/08 00:05:49;;;;;;;6.10;2.90;;;;;;;15.07;62.77;100040.45;1776085;80;21374;-59
2021/05/08 00:08:56;;;;;;;11.35;3.40;;;;;;;15.07;62.66;100032.17;1777564;80;21221;-57
2021/05/08 00:12:03;;;;;;;5.75;3.30;;;;;;;15.03;62.76;100018.82;1777629;80;21201;-59
2021/05/08 00:15:10;;;;;;;6.95;3.50;;;;;;;15.01;63.04;100022.86;1768427;80;21240;-58
2021/05/08 00:18:18;;;;;;;4.92;2.70;;;;;;;14.99;62.97;100016.19;1767891;81;21189;-58
2021/05/08 00:21:25;;;;;;;7.90;3.40;;;;;;;14.97;62.92;100014.69;1768376;81;21212;-58
2021/05/08 00:24:32;;;;;;;5.40;2.92;;;;;;;14.96;63.13;100026.78;1776087;80;21212;-58
2021/05/08 00:27:37;;;;;;;4.53;2.70;;;;;;;14.94;63.65;100027.52;1775325;81;21217;-59
2021/05/08 00:30:42;;;;;;;7.97;2.72;;;;;;;14.92;63.73;100028.28;1775970;81;21347;-57
2021/05/08 00:33:48;;;;;;;7.08;2.75;;;;;;;14.88;63.81;100026.48;1773864;81;21421;-57
2021/05/08 00:36:53;;;;;;;5.22;2.52;;;;;;;14.86;63.89;100029.11;1775891;81;21217;-57
2021/05/08 00:40:00;;;;;;;5.30;2.70;;;;;;;14.82;63.91;100031.47;1775302;81;21240;-56
2021/05/08 00:43:07;;;;;;;4.92;2.37;;;;;;;14.79;64.45;100035.17;1768287;81;21209;-57
2021/05/08 00:46:14;;;;;;;5.15;2.65;;;;;;;14.69;65.22;100023.70;1767953;81;21821;-57
2021/05/08 00:49:22;;;;;;;5.53;2.42;;;;;;;14.57;66.02;100013.01;1767754;81;21406;-56
2021/05/08 00:52:28;;;;;;;5.50;2.90;;;;;;;14.48;66.85;100010.97;1767558;81;21216;-58
2021/05/08 00:55:33;;;;;;;5.87;2.72;;;;;;;14.40;67.57;100003.42;1775794;81;21624;-57
2021/05/08 00:58:38;;;;;;;5.65;2.85;;;;;;;14.27;67.98;99975.89;1775449;81;21374;-56
2021/05/08 01:01:44;;;;;;;5.03;2.95;;;;;;;14.13;68.55;99968.09;1775493;81;21229;-58
2021/05/08 01:04:49;;;;;;;6.85;3.00;;;;;;;13.97;68.99;99964.89;1767153;81;21709;-57
2021/05/08 01:07:56;;;;;;;5.17;2.95;;;;;;;13.83;69.68;99967.26;1775795;81;21347;-57
2021/05/08 01:11:01;;;;;;;3.15;2.40;;;;;;;13.73;70.21;99962.14;1768291;81;21224;-58
2021/05/08 01:14:09;;;;;;;5.62;3.12;;;;;;;13.67;70.58;99960.77;1761583;80;21355;-56
2021/05/08 01:17:15;;;;;;;4.92;2.80;;;;;;;13.62;70.91;99953.66;1776784;81;21195;-58
2021/05/08 01:20:22;;;;;;;4.58;2.67;;;;;;;13.60;70.98;99940.12;1765696;81;21244;-59
2021/05/08 01:23:30;;;;;;;3.87;2.90;;;;;;;13.59;71.00;99938.95;1777170;81;21231;-59
2021/05/08 01:26:38;;;;;;;5.83;3.10;;;;;;;13.58;71.13;99938.61;1765615;81;21744;-58
2021/05/08 01:29:44;;;;;;;3.45;2.50;;;;;;;13.54;71.15;99929.40;1765706;81;21220;-58
2021/05/08 01:32:50;;;;;;;3.98;2.65;;;;;;;13.54;71.42;99918.40;1776930;81;21211;-57
2021/05/08 01:35:57;;;;;;;4.30;2.62;;;;;;;13.54;71.55;99919.77;1765829;81;21185;-59
2021/05/08 01:39:02;;;;;;;7.37;2.85;;;;;;;13.52;71.54;99910.88;1777188;81;21224;-59
2021/05/08 01:42:10;;;;;;;4.55;2.60;;;;;;;13.50;71.59;99910.25;1765601;81;21244;-58
2021/05/08 01:45:23;;;;;;;4.75;2.62;;;;;;;13.48;71.69;99897.75;1777138;81;21323;-57
2021/05/08 01:48:31;;;;;;;3.40;2.58;;;;;;;13.47;71.70;99901.56;1777202;81;21748;-57
2021/05/08 01:51:37;;;;;;;6.25;2.92;;;;;;;13.48;71.66;99895.85;1765766;81;21212;-57
2021/05/08 01:54:44;;;;;;;3.72;2.77;;;;;;;13.49;71.68;99886.54;1777140;81;21201;-58
2021/05/08 01:57:58;;;;;;;5.83;2.45;;;;;;;13.48;71.63;99876.61;1765661;81;21626;-56
2021/05/08 02:01:05;;;;;;;4.50;2.42;;;;;;;13.50;71.64;99870.38;1777256;81;21342;-56
2021/05/08 02:04:13;;;;;;;3.55;2.47;;;;;;;13.52;71.61;99868.25;1765634;81;21201;-57
2021/05/08 02:07:19;;;;;;;5.25;2.50;;;;;;;13.53;71.44;99866.36;1777095;81;21374;-57
2021/05/08 02:10:26;;;;;;;3.40;2.92;;;;;;;13.54;71.39;99866.14;1765438;81;21229;-57
2021/05/08 02:13:31;;;;;;;4.90;2.77;;;;;;;13.55;71.30;99869.75;1776996;81;21216;-58
2021/05/08 02:16:36;;;;;;;4.92;3.00;;;;;;;13.57;71.29;99868.17;1765334;81;21406;-58
2021/05/08 02:19:43;;;;;;;5.53;2.87;;;;;;;13.57;71.31;99876.42;1770848;81;21346;-57
2021/05/08 02:22:49;;;;;;;7.08;2.83;;;;;;;13.56;71.50;99874.73;1770559;81;21409;-58
2021/05/08 02:25:57;;;;;;;5.78;2.62;;;;;;;13.53;71.71;99867.73;1770752;81;21224;-59
2021/05/08 02:29:02;;;;;;;6.58;3.00;;;;;;;13.51;71.82;99855.56;1770478;81;21347;-57
2021/05/08 02:32:08;;;;;;;6.85;2.80;;;;;;;13.50;71.92;99855.77;1765932;81;21729;-57
2021/05/08 02:35:17;;;;;;;4.33;2.52;;;;;;;13.47;71.99;99847.42;1779454;80;21852;-59
2021/05/08 02:38:25;;;;;;;4.33;2.87;;;;;;;13.46;72.14;99836.09;1779684;80;21228;-57
2021/05/08 02:41:32;;;;;;;5.25;2.72;;;;;;;13.43;72.24;99838.39;1779631;80;21196;-58
2021/05/08 02:44:39;;;;;;;5.78;2.80;;;;;;;13.41;72.30;99848.23;1779773;80;21764;-59
2021/05/08 02:47:46;;;;;;;3.90;2.92;;;;;;;13.42;72.08;99846.34;1779767;80;21271;-57
2021/05/08 02:50:54;;;;;;;4.60;2.75;;;;;;;13.41;71.88;99842.73;1779677;80;21323;-56
2021/05/08 02:54:01;;;;;;;4.60;2.60;;;;;;;13.44;71.67;99842.86;1779562;80;21224;-56
2021/05/08 02:57:07;;;;;;;5.58;3.30;;;;;;;13.45;71.57;99852.28;1779552;80;21236;-59
2021/05/08 03:00:18;;;;;;;5.17;3.83;;;;;;;13.44;71.39;99851.97;1779644;80;21323;-58
2021/05/08 03:03:24;;;;;;;4.95;2.58;;;;;;;13.43;71.38;99851.63;1779365;80;21661;-55
2021/05/08 03:06:30;;;;;;;5.12;3.00;;;;;;;13.44;71.37;99845.09;1779726;80;21326;-56
2021/05/08 03:09:35;;;;;;;3.55;2.90;;;;;;;13.44;71.22;99853.34;1779848;80;21701;-56
2021/05/08 03:12:41;;;;;;;5.33;3.60;;;;;;;13.47;71.02;99861.17;1779708;79;21330;-55
2021/05/08 03:15:48;;;;;;;3.52;2.60;;;;;;;13.50;71.17;99864.02;1779575;80;21366;-58
2021/05/08 03:18:55;;;;;;;8.43;2.92;;;;;;;13.52;71.03;99862.75;1751467;80;21205;-55
2021/05/08 03:22:01;;;;;;;3.98;2.95;;;;;;;13.54;70.98;99856.52;1755496;80;21686;-57
2021/05/08 03:25:08;;;;;;;4.62;3.00;;;;;;;13.57;70.92;99857.17;1775631;81;21209;-59
2021/05/08 03:28:15;;;;;;;12.07;3.30;;;;;;;13.59;70.96;99855.06;1776071;81;21212;-58
2021/05/08 03:31:24;;;;;;;4.85;3.10;;;;;;;13.60;70.88;99843.00;1775957;81;21780;-56
2021/05/08 03:34:30;;;;;;;4.85;3.10;;;;;;;13.61;70.84;99843.31;1776031;81;21200;-57
2021/05/08 03:37:39;;;;;;;5.85;3.27;;;;;;;13.62;70.85;99845.02;1775413;81;21350;-57
2021/05/08 03:40:46;;;;;;;6.22;3.72;;;;;;;13.63;70.99;99841.20;1775802;81;21223;-57
2021/05/08 03:43:51;;;;;;;6.22;3.08;;;;;;;13.66;70.95;99836.66;1775988;81;21752;-56
2021/05/08 03:46:57;;;;;;;5.25;3.40;;;;;;;13.69;70.92;99833.48;1775816;81;21255;-57
2021/05/08 03:50:03;;;;;;;4.72;3.08;;;;;;;13.76;71.04;99834.36;1776004;81;21863;-55
2021/05/08 03:53:08;;;;;;;4.17;2.98;;;;;;;13.83;71.08;99844.30;1775917;81;21227;-56
2021/05/08 03:56:13;;;;;;;3.83;3.08;;;;;;;13.91;70.93;99845.48;1775561;81;21216;-55
2021/05/08 03:59:20;;;;;;;4.90;3.22;;;;;;;13.96;70.97;99833.84;1776003;81;21199;-57
2021/05/08 04:02:25;;;;;;;6.20;3.60;;;;;;;14.01;70.94;99837.67;1776141;81;21903;-58
2021/05/08 04:05:32;;;;;;;4.53;3.87;;;;;;;14.04;70.87;99824.00;1775993;81;21204;-57
2021/05/08 04:08:37;;;;;;;6.55;4.17;;;;;;;14.07;71.01;99826.33;1775173;81;21272;-56
2021/05/08 04:11:44;;;;;;;5.72;3.35;;;;;;;14.11;70.96;99819.36;1776197;81;21185;-56
2021/05/08 04:14:49;;;;;;;6.22;3.58;;;;;;;14.15;70.96;99819.23;1775563;81;21240;-57
2021/05/08 04:17:54;;;;;;;5.05;3.92;;;;;;;14.18;70.94;99811.92;1773107;80;21208;-58
2021/05/08 04:20:59;;;;;;;6.45;4.30;;;;;;;14.26;71.02;99810.36;1768247;81;21525;-58
2021/05/08 04:24:05;;;;;;;6.20;3.80;;;;;;;14.31;70.95;99810.57;1775520;81;21225;-58
2021/05/08 04:27:11;;;;;;;5.80;3.75;;;;;;;14.37;70.89;99811.09;1768241;81;21698;-57
2021/05/08 04:30:18;;;;;;;7.62;4.12;;;;;;;14.43;71.00;99814.39;1776133;81;21527;-58
2021/05/08 04:33:24;;;;;;;6.03;4.12;;;;;;;14.54;71.00;99805.47;1767726;81;21363;-57
2021/05/08 04:36:34;;;;;;;5.28;3.95;;;;;;;14.60;70.86;99797.71;1775884;81;21605;-60
2021/05/08 04:39:37;;;;;;;5.85;4.17;;;;;;;14.66;70.89;99795.47;1760253;81;21184;-58
2021/05/08 04:42:42;;;;;;;6.05;3.83;;;;;;;14.72;70.65;99791.84;1759206;80;21275;-58
2021/05/08 04:45:51;;;;;;;7.30;4.50;;;;;;;14.77;70.73;99774.98;1762148;80;21213;-58
2021/05/08 04:48:57;;;;;;;8.98;4.50;;;;;;;14.81;70.76;99765.73;1739277;81;21220;-58
2021/05/08 04:52:04;;;;;;;6.58;4.28;;;;;;;14.86;70.58;99761.78;1733446;81;21347;-57
2021/05/08 04:55:12;;;;;;;7.87;4.78;;;;;;;14.90;70.74;99759.75;1733897;82;21221;-58
2021/05/08 04:58:19;;;;;;;7.17;4.20;;;;;;;14.96;70.86;99753.91;1734291;81;21382;-55
2021/05/08 05:01:28;;;;;;;7.53;4.08;;;;;;;15.04;70.95;99766.06;1740668;82;21634;-56
2021/05/08 05:04:35;;;;;;;10.05;4.70;;;;;;;15.10;70.59;99758.29;1734031;82;22299;-58
2021/05/08 05:07:44;;;;;;;7.12;4.22;;;;;;;15.10;70.37;99746.41;1741441;81;21425;-56
2021/05/08 05:10:49;;;;;;;7.22;4.42;;;;;;;15.12;70.49;99736.01;1733579;82;21240;-57
2021/05/08 05:13:56;;;;;;;6.92;4.22;;;;;;;15.18;70.41;99732.36;1740665;81;21393;-56
2021/05/08 05:17:01;;;;;;;6.78;4.40;;;;;;;15.25;70.45;99743.69;1733437;81;21236;-58
2021/05/08 05:20:13;;;;;;;7.03;4.25;;;;;;;15.28;70.16;99739.63;1733814;80;21398;-57
2021/05/08 05:23:19;;;;;;;6.20;4.37;;;;;;;15.31;70.34;99732.29;1745186;80;21448;-58
2021/05/08 05:26:26;;;;;;;9.00;4.83;;;;;;;15.35;70.27;99738.52;1756193;80;21232;-58
2021/05/08 05:29:32;;;;;;;7.85;4.08;;;;;;;15.38;70.31;99735.34;1762844;80;21220;-58
2021/05/08 05:32:38;;;;;;;7.40;4.30;;;;;;;15.42;70.35;99735.22;1754325;80;21796;-55
2021/05/08 05:35:44;;;;;;;7.12;4.42;;;;;;;15.42;70.28;99743.50;1767444;80;21294;-57
2021/05/08 05:38:50;;;;;;;8.68;4.85;;;;;;;15.39;70.27;99741.19;1746427;80;21343;-57
2021/05/08 05:41:55;;;;;;;11.12;5.08;;;;;;;15.36;70.35;99746.27;1738459;81;21184;-56
2021/05/08 05:45:03;;;;;;;9.75;5.25;;;;;;;15.37;70.55;99746.04;1738811;82;21236;-56
2021/05/08 05:48:08;;;;;;;8.60;5.05;;;;;;;15.35;70.52;99745.41;1746518;81;21736;-57
2021/05/08 05:51:13;;;;;;;9.50;5.30;;;;;;;15.36;70.50;99737.47;1738404;82;21311;-56
2021/05/08 05:54:19;;;;;;;8.80;5.17;;;;;;;15.36;70.55;99740.22;1746600;82;21739;-55
2021/05/08 05:57:25;;;;;;;13.85;5.22;;;;;;;15.39;70.41;99734.81;1738565;81;21295;-56
2021/05/08 06:00:33;;;;;;;10.82;5.33;;;;;;;15.40;70.45;99731.83;1739363;82;21192;-57
2021/05/08 06:03:40;;;;;;;9.43;5.12;;;;;;;15.44;70.41;99729.48;1739557;81;21302;-55
2021/05/08 06:06:47;;;;;;;9.95;6.42;;;;;;;15.45;70.29;99732.02;1739489;81;21243;-56
2021/05/08 06:09:52;;;;;;;10.72;6.53;;;;;;;15.47;70.26;99727.66;1739628;82;21761;-57
2021/05/08 06:12:59;;;;;;;11.20;5.78;;;;;;;15.48;70.28;99727.42;1739508;81;21256;-57
2021/05/08 06:16:09;;;;;;;12.58;5.78;;;;;;;15.51;70.21;99737.16;1732955;82;21367;-56
2021/05/08 06:19:14;;;;;;;11.88;6.67;;;;;;;15.52;70.22;99727.31;1750245;81;21162;-55
2021/05/08 06:22:19;;;;;;;11.35;6.72;;;;;;;15.51;70.28;99733.02;1737006;79;21996;-55
2021/05/08 06:25:24;;;;;;;13.43;7.03;;;;;;;15.51;70.27;99732.49;1735079;82;21365;-55
2021/05/08 06:28:32;;;;;;;13.48;7.15;;;;;;;15.50;70.16;99728.06;1735729;81;21382;-55
2021/05/08 06:31:40;;;;;;;13.78;7.42;;;;;;;15.50;70.05;99737.72;1735370;82;21738;-55
2021/05/08 06:34:48;;;;;;;8.65;7.08;;;;;;;15.50;69.88;99737.72;1735663;82;21874;-57
2021/05/08 06:37:58;;;;;;;12.80;7.70;;;;;;;15.49;69.98;99737.38;1749821;80;21260;-55
2021/05/08 06:41:05;;;;;;;13.53;7.58;;;;;;;15.50;70.06;99746.52;1763553;79;21165;-55
2021/05/08 06:44:13;;;;;;;13.95;8.23;;;;;;;15.49;70.28;99738.76;1750136;80;21355;-57
2021/05/08 06:47:19;;;;;;;12.53;7.78;;;;;;;15.49;70.28;99740.14;1772540;80;21387;-57
2021/05/08 06:50:26;;;;;;;15.05;8.30;;;;;;;15.48;70.58;99736.23;1769742;81;22020;-55
2021/05/08 06:53:31;;;;;;;13.22;8.68;;;;;;;15.45;71.21;99740.81;1769568;79;21468;-55
2021/05/08 06:56:36;;;;;;;14.98;8.50;;;;;;;15.43;71.74;99744.35;1769640;81;21228;-54
2021/05/08 06:59:43;;;;;;;17.57;9.73;;;;;;;15.38;72.33;99739.48;1770216;81;21335;-55
2021/05/08 07:02:50;;;;;;;12.75;9.58;;;;;;;15.32;72.82;99745.86;1770421;79;21377;-54
2021/05/08 07:05:58;;;;;;;17.80;9.75;;;;;;;15.26;73.54;99743.98;1770265;81;21343;-55
2021/05/08 07:09:05;;;;;;;16.05;9.40;;;;;;;15.20;74.34;99749.54;1770374;79;21911;-53
2021/05/08 07:12:14;;;;;;;16.05;9.23;;;;;;;15.15;75.26;99762.61;1770354;79;21350;-54
2021/05/08 07:15:21;;;;;;;17.10;9.65;;;;;;;15.07;76.03;99755.97;1770221;81;21737;-55
2021/05/08 07:18:27;;;;;;;16.20;9.15;;;;;;;14.97;76.75;99760.58;1770136;79;21266;-54
2021/05/08 07:21:33;;;;;;;17.15;10.13;;;;;;;14.90;77.40;99751.48;1768087;81;21867;-54
2021/05/08 07:24:39;;;;;;;17.70;9.83;;;;;;;14.83;77.88;99755.34;1772780;81;21192;-54
2021/05/08 07:27:46;;;;;;;14.63;9.73;;;;;;;14.77;78.29;99754.84;1772681;79;21212;-54
2021/05/08 07:30:53;;;;;;;18.52;10.48;;;;;;;14.71;78.73;99758.47;1772427;81;21180;-54
2021/05/08 07:33:59;;;;;;;17.45;10.53;;;;;;;14.65;79.30;99755.22;1767442;80;21208;-54
2021/05/08 07:37:04;;;;;;;14.87;10.65;;;;;;;14.65;79.65;99738.69;1775423;81;21838;-54
2021/05/08 07:40:12;;;;;;;16.10;10.32;;;;;;;14.68;79.94;99746.52;1765722;80;21717;-54
2021/05/08 07:43:18;;;;;;;15.13;9.65;;;;;;;14.68;80.15;99742.37;1745941;80;21291;-54
2021/05/08 07:46:23;;;;;;;13.50;9.48;;;;;;;14.70;80.37;99741.09;1745643;82;21259;-53
2021/05/08 07:49:29;;;;;;;18.67;9.85;;;;;;;14.71;80.54;99753.78;1746354;81;21723;-54
2021/05/08 07:52:35;;;;;;;15.98;9.10;;;;;;;14.69;80.71;99757.84;1746750;82;21204;-54
2021/05/08 07:55:39;;;;;;;15.88;9.95;;;;;;;14.64;80.85;99763.14;1747100;82;21172;-54
2021/05/08 07:58:45;;;;;;;14.30;9.40;;;;;;;14.56;81.05;99771.13;1746952;82;21235;-54
2021/05/08 08:01:51;;;;;;;13.72;8.43;;;;;;;14.52;81.40;99775.39;1746937;80;21262;-54
2021/05/08 08:04:57;;;;;;;15.30;9.93;;;;;;;14.48;81.59;99769.12;1746973;82;21350;-55
2021/05/08 08:08:03;;;;;;;18.15;9.15;;;;;;;14.45;81.83;99779.20;1746937;81;21790;-53
2021/05/08 08:11:10;;;;;;;11.85;8.70;;;;;;;14.43;82.14;99781.34;1746950;82;21207;-53
2021/05/08 08:14:19;;;;;;;13.80;8.73;;;;;;;14.38;82.37;99772.32;1746273;82;21196;-53
2021/05/08 08:17:28;;;;;;;14.28;9.10;;;;;;;14.38;82.71;99735.70;1746313;82;21248;-54
2021/05/08 08:20:33;;;;;;;13.45;8.65;;;;;;;14.39;82.90;99746.50;1746992;82;21215;-54
2021/05/08 08:23:38;;;;;;;16.95;9.30;;;;;;;14.38;82.94;99732.95;1743058;81;21295;-53
2021/05/08 08:26:44;;;;;;;17.62;9.00;;;;;;;14.41;83.17;99735.27;1746995;82;21223;-54
2021/05/08 08:29:50;;;;;;;11.68;8.68;;;;;;;14.42;83.24;99730.06;1746448;82;21223;-56
2021/05/08 08:32:55;;;;;;;15.08;8.48;;;;;;;14.44;83.39;99726.56;1746815;81;21223;-55
2021/05/08 08:36:01;;;;;;;12.68;8.40;;;;;;;14.44;83.40;99737.58;1746712;82;21219;-54
2021/05/08 08:39:09;;;;;;;11.48;8.33;;;;;;;14.46;83.55;99737.67;1746914;80;21240;-54
2021/05/08 08:42:15;;;;;;;12.98;8.58;;;;;;;14.49;83.70;99734.48;1753977;79;21219;-54
2021/05/08 08:45:21;;;;;;;10.15;8.05;;;;;;;14.54;83.83;99753.14;1777192;80;21697;-54
2021/05/08 08:48:28;;;;;;;16.17;9.30;;;;;;;14.51;83.85;99762.66;1777321;79;21882;-54
2021/05/08 08:51:35;;;;;;;13.32;8.85;;;;;;;14.49;83.97;99766.70;1767420;80;21217;-55
2021/05/08 08:54:40;;;;;;;11.83;8.23;;;;;;;14.48;84.09;99767.75;1766307;81;21209;-54
2021/05/08 08:57:48;;;;;;;11.83;8.40;;;;;;;14.46;84.14;99768.52;1775867;80;21315;-54
2021/05/08 09:00:53;;;;;;;12.37;8.35;;;;;;;14.44;84.32;99768.73;1768203;81;21204;-54
2021/05/08 09:04:00;;;;;;;11.35;7.72;;;;;;;14.43;84.47;99776.66;1775499;80;21275;-55
2021/05/08 09:07:06;;;;;;;12.25;7.72;;;;;;;14.41;84.70;99789.78;1775459;80;21402;-55
2021/05/08 09:10:13;;;;;;;12.03;7.53;;;;;;;14.36;84.84;99796.50;1770026;80;21188;-55
2021/05/08 09:13:30;;;;;;;11.73;7.87;;;;;;;14.33;85.06;99801.58;1769807;81;21236;-55
2021/05/08 09:16:34;;;;;;;9.40;6.75;;;;;;;14.30;85.22;99801.45;1777671;80;21177;-55
2021/05/08 09:19:43;;;;;;;12.60;7.87;;;;;;;14.30;85.42;99807.52;1770068;80;21220;-55
2021/05/08 09:22:49;;;;;;;8.88;7.15;;;;;;;14.26;85.51;99800.20;1778202;80;21228;-55
2021/05/08 09:26:16;;;;;;;13.58;7.15;;;;;;;14.25;85.70;99799.05;1778425;78;21832;-56
2021/05/08 09:29:27;;;;;;;9.65;6.50;;;;;;;14.21;85.82;99819.75;1771966;79;21173;-56
2021/05/08 09:32:34;;;;;;;11.80;8.40;;;;;;;14.18;86.07;99813.30;1778638;80;21268;-56
2021/05/08 09:35:44;;;;;;;10.25;8.18;;;;;;;14.19;86.35;99810.88;1763603;80;21342;-54
2021/05/08 09:38:50;;;;;;;10.28;7.00;;;;;;;14.26;86.61;99801.58;1769875;80;21205;-56
2021/05/08 09:41:54;;;;;;;10.80;7.60;;;;;;;14.36;86.65;99799.77;1777721;80;21267;-54
2021/05/08 09:45:05;;;;;;;10.20;5.03;;;;;;;14.39;86.55;99796.58;1776396;80;21209;-55
2021/05/08 09:48:34;;;;;;;7.75;5.97;;;;;;;14.44;86.53;99803.67;1775695;80;21347;-55
2021/05/08 09:51:41;;;;;;;6.83;5.25;;;;;;;14.46;86.28;99805.14;1740008;80;21236;-56
2021/05/08 09:54:50;;;;;;;6.20;4.95;;;;;;;14.50;86.24;99800.91;1732760;82;21378;-55
2021/05/08 09:58:13;;;;;;;7.47;4.83;;;;;;;14.65;86.17;99797.92;1733260;81;21371;-55
2021/05/08 10:01:22;;;;;;;;;;;;;;;14.84;86.06;99799.21;1735780;82;21386;-56
2021/05/08 10:04:44;;;;;;;6.15;4.10;;;;;;;14.95;85.51;99799.09;1734265;81;20359;-56
2021/05/08 10:07:50;;;;;;;5.37;3.90;;;;;;;14.93;84.93;99799.83;1733576;81;21415;-54
2021/05/08 10:10:55;;;;;;;7.20;4.12;;;;;;;14.86;84.29;99801.75;1733802;82;21276;-54
2021/05/08 10:14:04;;;;;;;3.90;2.25;;;;;;;14.86;83.89;99814.15;1735522;81;21437;-55
2021/05/08 10:17:11;;;;;;;4.17;2.90;;;;;;;14.97;83.30;99821.73;1767452;80;21197;-54
2021/05/08 10:20:19;;;;;;;5.42;3.42;;;;;;;15.05;82.02;99821.50;1732418;82;21796;-54
2021/05/08 10:23:25;;;;;;;3.25;1.70;;;;;;;15.18;81.47;99810.42;1732757;81;21406;-53
2021/05/08 10:26:31;;;;;;;4.20;2.95;;;;;;;15.32;80.03;99809.84;1743696;79;21358;-55
2021/05/08 10:29:39;;;;;;;5.78;2.75;;;;;;;15.44;79.20;99808.95;1733592;82;21414;-55
2021/05/08 10:32:46;;;;;;;5.28;3.67;;;;;;;15.58;78.16;99818.84;1747548;81;21421;-54
2021/05/08 10:35:59;;;;;;;4.95;3.20;;;;;;;15.67;77.63;99836.81;1733372;82;21737;-55
2021/05/08 10:39:14;;;;;;;5.30;3.35;;;;;;;15.78;77.42;99833.34;1753034;80;21382;-54
2021/05/08 10:42:19;;;;;;;3.58;2.33;;;;;;;15.86;77.18;99828.93;1751109;82;21252;-54
2021/05/08 10:45:32;;;;;;;4.17;2.83;;;;;;;15.87;76.47;99819.57;1751393;81;21235;-55
2021/05/08 10:48:38;;;;;;;3.80;2.70;;;;;;;15.80;75.31;99816.03;1774793;80;21416;-55
2021/05/08 10:52:05;;;;;;;2.52;2.33;;;;;;;15.67;74.63;99828.53;1783326;80;21363;-57
2021/05/08 10:55:15;;;;;;;2.70;2.50;;;;;;;15.57;74.53;99817.68;1783641;80;21748;-55
2021/05/08 10:58:29;;;;;;;4.58;2.40;;;;;;;15.51;74.57;99808.36;1783750;80;21220;-56
2021/05/08 11:01:52;;;;;;;3.27;2.92;;;;;;;15.53;74.47;99809.52;1783744;80;21287;-55
2021/05/08 11:05:39;;;;;;;2.80;2.60;;;;;;;15.59;74.78;99805.34;1769748;80;21352;-55
2021/05/08 11:08:48;;;;;;;3.52;2.80;;;;;;;15.71;75.05;99806.34;1751095;81;21224;-55
2021/05/08 11:11:58;;;;;;;3.67;3.15;;;;;;;15.93;74.99;99813.18;1751207;81;21211;-53
2021/05/08 11:15:09;;;;;;;7.35;4.00;;;;;;;16.01;74.18;99818.43;1752839;80;21741;-56
2021/05/08 11:18:16;;;;;;;8.53;5.83;;;;;;;16.04;73.82;99814.36;1771637;80;21338;-55
2021/05/08 11:21:33;;;;;;;7.30;4.30;;;;;;;16.04;73.54;99812.45;1783368;80;21725;-54
2021/05/08 11:24:46;;;;;;;5.67;5.08;;;;;;;16.10;73.03;99812.92;1784115;80;21350;-55
2021/05/08 11:27:52;;;;;;;5.95;5.35;;;;;;;16.13;72.41;99808.33;1780052;79;21342;-56
2021/05/08 11:31:01;;;;;;;4.47;4.03;;;;;;;16.25;71.75;99814.80;1783970;80;21299;-55
2021/05/08 11:34:17;;;;;;;5.20;4.70;;;;;;;16.43;70.21;99817.61;1783918;80;21413;-56
2021/05/08 11:37:24;;;;;;;4.50;3.62;;;;;;;16.53;68.64;99812.98;1783636;80;21318;-56
2021/05/08 11:40:41;;;;;;;5.45;4.28;;;;;;;16.64;67.32;99825.19;1742312;80;21733;-56
2021/05/08 11:43:47;;;;;;;4.33;3.92;;;;;;;16.71;66.56;99814.40;1782745;80;21878;-57
2021/05/08 11:47:05;;;;;;;4.90;4.33;;;;;;;16.72;66.91;99820.22;1782154;80;21338;-58
2021/05/08 11:50:23;;;;;;;4.58;3.80;;;;;;;16.68;66.70;99820.36;1782281;80;21315;-56
2021/05/08 11:53:27;;;;;;;4.40;4.00;;;;;;;16.49;66.26;99820.58;1782040;80;21406;-56
2021/05/08 11:56:39;;;;;;;4.70;4.22;;;;;;;16.32;66.90;99815.59;1758408;80;21326;-57
2021/05/08 11:59:44;;;;;;;6.53;4.08;;;;;;;16.26;67.57;99833.08;1776544;80;21457;-57
2021/05/08 12:02:50;;;;;;;5.85;3.75;;;;;;;16.19;67.78;99832.80;1783150;80;21381;-57
2021/05/08 12:05:58;;;;;;;2.77;2.50;;;;;;;16.12;67.65;99849.45;1784059;80;21386;-56
2021/05/08 12:09:04;;;;;;;2.25;2.00;;;;;;;16.02;66.17;99853.23;1784367;80;21677;-55
2021/05/08 12:12:11;;;;;;;2.20;2.00;;;;;;;15.91;66.03;99858.63;1783759;80;21421;-56
2021/05/08 12:15:20;;;;;;;1.80;1.70;;;;;;;15.89;65.91;99837.29;1781939;80;21196;-56
2021/05/08 12:18:27;;;;;;;2.50;2.10;;;;;;;15.93;64.77;99838.03;1780119;79;21350;-57
2021/05/08 12:21:34;;;;;;;3.52;2.47;;;;;;;16.00;64.46;99831.05;1783304;80;21927;-56
2021/05/08 12:24:39;;;;;;;4.05;2.80;;;;;;;16.14;64.38;99823.81;1783727;80;21741;-58
2021/05/08 12:27:44;;;;;;;2.30;2.10;;;;;;;16.57;63.99;99825.81;1772519;79;21354;-58
2021/05/08 12:30:52;;;;;;;3.40;2.50;;;;;;;16.98;62.91;99831.53;1752496;81;21188;-56
2021/05/08 12:33:58;;;;;;;3.10;2.80;;;;;;;17.11;61.92;99830.81;1729147;81;21220;-56
2021/05/08 12:37:10;;;;;;;7.15;4.60;;;;;;;17.14;60.34;99834.50;1782258;79;21294;-57
2021/05/08 12:40:17;;;;;;;5.37;4.83;;;;;;;17.07;59.88;99840.67;1777020;80;21350;-57
2021/05/08 12:43:39;;;;;;;5.85;4.58;;;;;;;16.87;59.62;99843.35;1779077;79;21596;-56
2021/05/08 12:47:15;;;;;;;4.55;3.70;;;;;;;16.48;60.81;99858.93;1769424;80;21694;-56
2021/05/08 12:50:27;;;;;;;4.72;3.47;;;;;;;16.14;62.64;99861.09;1772876;80;21346;-57
2021/05/08 12:53:33;;;;;;;3.15;2.75;;;;;;;15.87;63.09;99865.12;1783475;79;21172;-55
2021/05/08 12:56:41;;;;;;;4.92;3.70;;;;;;;15.70;64.00;99873.62;1750880;80;21450;-57
2021/05/08 12:59:48;;;;;;;4.80;3.37;;;;;;;15.64;65.35;99871.75;1768249;81;21247;-56
2021/05/08 13:02:56;;;;;;;5.50;4.03;;;;;;;15.64;66.55;99877.79;1769318;79;21381;-57
2021/05/08 13:06:01;;;;;;;4.22;3.50;;;;;;;15.60;67.03;99877.94;1783330;80;21812;-56
2021/05/08 13:09:09;;;;;;;5.25;3.65;;;;;;;15.53;67.27;99883.48;1769557;80;21377;-59
2021/05/08 13:12:22;;;;;;;6.17;3.85;;;;;;;15.45;67.21;99896.14;1733352;81;21399;-55
2021/05/08 13:15:40;;;;;;;6.70;4.05;;;;;;;15.33;67.65;99902.01;1719036;83;21361;-58
2021/05/08 13:18:47;;;;;;;4.92;3.67;;;;;;;15.25;67.84;99895.88;1762088;80;21215;-59
2021/05/08 13:21:54;;;;;;;4.45;4.03;;;;;;;15.28;67.93;99896.81;1768731;79;21216;-55
2021/05/08 13:25:03;;;;;;;4.05;3.50;;;;;;;15.26;67.94;99899.80;1782620;80;21898;-59
2021/05/08 13:28:08;;;;;;;3.95;3.33;;;;;;;15.18;67.90;99912.44;1732256;81;21196;-58
2021/05/08 13:31:16;;;;;;;4.05;3.62;;;;;;;15.05;67.70;99926.25;1768507;80;21338;-58
2021/05/08 13:34:22;;;;;;;6.58;3.80;;;;;;;14.82;68.04;99940.52;1782134;79;21314;-58
2021/05/08 13:37:29;;;;;;;5.53;3.30;;;;;;;14.61;68.63;99942.13;1783037;79;21831;-59
2021/05/08 13:40:35;;;;;;;4.45;3.55;;;;;;;14.23;68.65;99969.92;1783824;80;21839;-58
2021/05/08 13:43:41;;;;;;;5.35;3.47;;;;;;;13.77;69.49;99956.56;1759397;80;21342;-57
2021/05/08 13:46:49;;;;;;;6.17;3.65;;;;;;;13.40;70.79;99933.67;1745511;81;21375;-58
2021/05/08 13:49:54;;;;;;;5.72;4.10;;;;;;;13.15;71.78;99964.95;1747269;80;21212;-55
2021/05/08 13:52:59;;;;;;;5.42;4.85;;;;;;;12.93;72.65;99970.17;1742387;80;21243;-59
2021/05/08 13:56:06;;;;;;;5.97;4.97;;;;;;;12.80;73.17;99971.96;1741272;82;21245;-57
2021/05/08 13:59:11;;;;;;;7.28;5.65;;;;;;;12.69;73.06;99988.48;1751684;82;21188;-57
2021/05/08 14:02:18;;;;;;;6.28;5.10;;;;;;;12.61;72.37;99989.99;1735530;82;21239;-57
2021/05/08 14:05:25;;;;;;;7.50;4.67;;;;;;;12.52;71.76;99993.94;1752814;82;21203;-56
2021/05/08 14:08:30;;;;;;;5.85;4.90;;;;;;;12.48;71.64;100002.77;1752622;80;21373;-59
2021/05/08 14:11:37;;;;;;;5.78;4.70;;;;;;;12.58;71.63;99997.26;1766365;80;21200;-56
2021/05/08 14:14:45;;;;;;;8.35;4.95;;;;;;;12.72;70.82;100004.55;1779954;80;21346;-56
2021/05/08 14:17:50;;;;;;;5.40;3.92;;;;;;;12.81;70.30;100017.63;1779236;80;21269;-57
2021/05/08 14:20:57;;;;;;;4.42;3.85;;;;;;;12.84;69.59;100024.95;1779907;80;21825;-56
2021/05/08 14:24:04;;;;;;;5.00;3.95;;;;;;;12.88;68.08;100035.86;1780839;80;21585;-55
2021/05/08 14:27:10;;;;;;;4.70;3.58;;;;;;;12.91;66.96;100066.19;1780251;80;21398;-56
2021/05/08 14:30:17;;;;;;;4.00;3.35;;;;;;;12.93;66.21;100066.34;1749270;81;21779;-58
2021/05/08 14:33:22;;;;;;;4.25;3.40;;;;;;;13.03;65.58;100042.67;1748072;82;21839;-57
2021/05/08 14:36:29;;;;;;;3.77;3.27;;;;;;;13.14;65.22;100055.34;1744403;82;21192;-57
2021/05/08 14:39:35;;;;;;;3.50;3.08;;;;;;;13.22;64.08;100055.16;1748617;82;21382;-56
2021/05/08 14:42:42;;;;;;;4.50;3.15;;;;;;;13.17;63.61;100058.20;1768644;79;21716;-57